sensor_id;sensor_type;location;lat;lon;timestamp;P1;durP1;ratioP1;P2;durP2;ratioP2
34775;SDS011;20989;52.566;13.346;2023-02-01T00:00:03;2.08;;;1.15;;
34775;SDS011;20989;52.566;13.346;2023-02-01T00:03:04;1.15;;;0.77;;
34775;SDS011;20989;52.566;13.346;2023-02-01T00:06:05;2.00;;;1.10;;
34775;SDS011;20989;52.566;13.346;2023-02-01T00:09:06;1.17;;;0.95;;
34775;SDS011;20989;52.566;13.346;2023-02-01T00:12:07;2.35;;;1.15;;
34775;SDS011;20989;52.566;13.346;2023-02-01T00:15:08;1.40;;;1.00;;
34775;SDS011;20989;52.566;13.346;2023-02-01T00:18:09;1.60;;;0.80;;
34775;SDS011;20989;52.566;13.346;2023-02-01T00:21:10;2.63;;;1.00;;
34775;SDS011;20989;52.566;13.346;2023-02-01T00:24:12;2.38;;;1.13;;
34775;SDS011;20989;52.566;13.346;2023-02-01T00:27:13;2.28;;;1.25;;
34775;SDS011;20989;52.566;13.346;2023-02-01T00:30:17;1.25;;;0.98;;
34775;SDS011;20989;52.566;13.346;2023-02-01T00:33:18;1.83;;;1.00;;
34775;SDS011;20989;52.566;13.346;2023-02-01T00:36:19;0.88;;;0.85;;
34775;SDS011;20989;52.566;13.346;2023-02-01T00:39:19;1.30;;;0.80;;
34775;SDS011;20989;52.566;13.346;2023-02-01T00:42:20;0.70;;;0.70;;
34775;SDS011;20989;52.566;13.346;2023-02-01T00:45:21;1.50;;;1.23;;
34775;SDS011;20989;52.566;13.346;2023-02-01T00:48:21;1.55;;;1.27;;
34775;SDS011;20989;52.566;13.346;2023-02-01T00:51:23;1.35;;;0.88;;
34775;SDS011;20989;52.566;13.346;2023-02-01T00:54:26;1.42;;;1.17;;
34775;SDS011;20989;52.566;13.346;2023-02-01T00:57:26;1.92;;;0.90;;
34775;SDS011;20989;52.566;13.346;2023-02-01T01:00:27;1.02;;;0.70;;
34775;SDS011;20989;52.566;13.346;2023-02-01T01:03:28;1.65;;;0.90;;
34775;SDS011;20989;52.566;13.346;2023-02-01T01:06:34;1.05;;;0.80;;
34775;SDS011;20989;52.566;13.346;2023-02-01T01:09:35;1.38;;;1.20;;
34775;SDS011;20989;52.566;13.346;2023-02-01T01:12:35;1.05;;;0.88;;
34775;SDS011;20989;52.566;13.346;2023-02-01T01:15:36;1.38;;;1.17;;
34775;SDS011;20989;52.566;13.346;2023-02-01T01:18:38;2.70;;;0.90;;
34775;SDS011;20989;52.566;13.346;2023-02-01T01:21:39;2.22;;;0.80;;
34775;SDS011;20989;52.566;13.346;2023-02-01T01:24:40;1.00;;;0.90;;
34775;SDS011;20989;52.566;13.346;2023-02-01T01:27:41;2.13;;;1.10;;
34775;SDS011;20989;52.566;13.346;2023-02-01T01:30:41;2.20;;;1.08;;
34775;SDS011;20989;52.566;13.346;2023-02-01T01:33:42;1.20;;;1.10;;
34775;SDS011;20989;52.566;13.346;2023-02-01T01:36:43;1.42;;;1.02;;
34775;SDS011;20989;52.566;13.346;2023-02-01T01:39:44;1.75;;;1.13;;
34775;SDS011;20989;52.566;13.346;2023-02-01T01:42:45;1.13;;;0.98;;
34775;SDS011;20989;52.566;13.346;2023-02-01T01:45:45;1.98;;;1.20;;
34775;SDS011;20989;52.566;13.346;2023-02-01T01:48:48;1.75;;;1.48;;
34775;SDS011;20989;52.566;13.346;2023-02-01T01:51:57;1.15;;;1.00;;
34775;SDS011;20989;52.566;13.346;2023-02-01T01:55:00;1.63;;;1.00;;
34775;SDS011;20989;52.566;13.346;2023-02-01T01:58:05;1.88;;;0.95;;
34775;SDS011;20989;52.566;13.346;2023-02-01T02:01:10;1.42;;;0.82;;
34775;SDS011;20989;52.566;13.346;2023-02-01T02:04:11;1.08;;;0.80;;
34775;SDS011;20989;52.566;13.346;2023-02-01T02:07:13;2.45;;;0.85;;
34775;SDS011;20989;52.566;13.346;2023-02-01T02:10:17;1.45;;;0.98;;
34775;SDS011;20989;52.566;13.346;2023-02-01T02:13:18;1.77;;;0.95;;
34775;SDS011;20989;52.566;13.346;2023-02-01T02:20:05;1.00;;;0.82;;
34775;SDS011;20989;52.566;13.346;2023-02-01T02:23:05;1.55;;;1.10;;
34775;SDS011;20989;52.566;13.346;2023-02-01T02:36:30;1.38;;;1.00;;
34775;SDS011;20989;52.566;13.346;2023-02-01T02:39:48;3.22;;;0.98;;
34775;SDS011;20989;52.566;13.346;2023-02-01T02:46:22;1.65;;;1.08;;
34775;SDS011;20989;52.566;13.346;2023-02-01T02:49:49;1.77;;;0.80;;
34775;SDS011;20989;52.566;13.346;2023-02-01T02:53:19;1.92;;;1.02;;
34775;SDS011;20989;52.566;13.346;2023-02-01T02:56:46;1.60;;;0.98;;
34775;SDS011;20989;52.566;13.346;2023-02-01T03:00:11;1.63;;;1.00;;
34775;SDS011;20989;52.566;13.346;2023-02-01T03:03:35;1.98;;;1.00;;
34775;SDS011;20989;52.566;13.346;2023-02-01T03:07:09;1.42;;;1.00;;
34775;SDS011;20989;52.566;13.346;2023-02-01T03:10:17;1.67;;;0.98;;
34775;SDS011;20989;52.566;13.346;2023-02-01T03:16:52;2.08;;;1.20;;
34775;SDS011;20989;52.566;13.346;2023-02-01T03:20:02;3.05;;;0.90;;
34775;SDS011;20989;52.566;13.346;2023-02-01T03:23:04;0.88;;;0.80;;
34775;SDS011;20989;52.566;13.346;2023-02-01T03:26:07;1.00;;;0.90;;
34775;SDS011;20989;52.566;13.346;2023-02-01T03:29:17;1.70;;;0.90;;
34775;SDS011;20989;52.566;13.346;2023-02-01T03:32:22;0.85;;;0.80;;
34775;SDS011;20989;52.566;13.346;2023-02-01T03:42:38;1.27;;;0.93;;
34775;SDS011;20989;52.566;13.346;2023-02-01T03:45:48;1.00;;;0.88;;
34775;SDS011;20989;52.566;13.346;2023-02-01T03:48:52;2.92;;;0.70;;
34775;SDS011;20989;52.566;13.346;2023-02-01T03:51:55;1.65;;;1.15;;
34775;SDS011;20989;52.566;13.346;2023-02-01T03:54:58;1.00;;;0.80;;
34775;SDS011;20989;52.566;13.346;2023-02-01T04:01:07;1.33;;;0.85;;
34775;SDS011;20989;52.566;13.346;2023-02-01T04:04:08;1.98;;;1.00;;
34775;SDS011;20989;52.566;13.346;2023-02-01T04:07:09;1.95;;;1.17;;
34775;SDS011;20989;52.566;13.346;2023-02-01T04:10:10;2.33;;;0.90;;
34775;SDS011;20989;52.566;13.346;2023-02-01T04:13:12;3.22;;;0.90;;
34775;SDS011;20989;52.566;13.346;2023-02-01T04:16:13;1.25;;;0.98;;
34775;SDS011;20989;52.566;13.346;2023-02-01T04:19:13;1.35;;;1.15;;
34775;SDS011;20989;52.566;13.346;2023-02-01T04:22:14;1.20;;;0.98;;
34775;SDS011;20989;52.566;13.346;2023-02-01T04:25:15;1.73;;;0.80;;
34775;SDS011;20989;52.566;13.346;2023-02-01T04:28:17;1.30;;;1.08;;
34775;SDS011;20989;52.566;13.346;2023-02-01T04:31:18;1.02;;;0.85;;
34775;SDS011;20989;52.566;13.346;2023-02-01T04:34:25;1.80;;;1.10;;
34775;SDS011;20989;52.566;13.346;2023-02-01T04:37:26;1.65;;;0.90;;
34775;SDS011;20989;52.566;13.346;2023-02-01T04:40:27;1.40;;;0.98;;
34775;SDS011;20989;52.566;13.346;2023-02-01T04:43:27;1.90;;;1.10;;
34775;SDS011;20989;52.566;13.346;2023-02-01T04:46:28;1.40;;;1.17;;
34775;SDS011;20989;52.566;13.346;2023-02-01T04:49:29;2.10;;;1.33;;
34775;SDS011;20989;52.566;13.346;2023-02-01T04:52:29;1.27;;;0.82;;
34775;SDS011;20989;52.566;13.346;2023-02-01T04:55:30;1.63;;;0.93;;
34775;SDS011;20989;52.566;13.346;2023-02-01T04:58:31;1.42;;;1.05;;
34775;SDS011;20989;52.566;13.346;2023-02-01T05:01:31;1.23;;;0.98;;
34775;SDS011;20989;52.566;13.346;2023-02-01T05:04:32;1.60;;;1.40;;
34775;SDS011;20989;52.566;13.346;2023-02-01T05:07:33;1.67;;;1.05;;
34775;SDS011;20989;52.566;13.346;2023-02-01T05:10:34;1.70;;;1.15;;
34775;SDS011;20989;52.566;13.346;2023-02-01T05:13:34;1.88;;;1.17;;
34775;SDS011;20989;52.566;13.346;2023-02-01T05:16:50;1.80;;;1.45;;
34775;SDS011;20989;52.566;13.346;2023-02-01T05:19:51;2.13;;;1.20;;
34775;SDS011;20989;52.566;13.346;2023-02-01T05:22:51;1.15;;;0.82;;
34775;SDS011;20989;52.566;13.346;2023-02-01T05:25:52;2.90;;;1.20;;
34775;SDS011;20989;52.566;13.346;2023-02-01T05:28:57;0.60;;;0.60;;
34775;SDS011;20989;52.566;13.346;2023-02-01T05:31:58;3.83;;;1.27;;
34775;SDS011;20989;52.566;13.346;2023-02-01T05:34:59;1.27;;;1.08;;
34775;SDS011;20989;52.566;13.346;2023-02-01T05:38:00;1.85;;;1.10;;
34775;SDS011;20989;52.566;13.346;2023-02-01T05:41:00;2.55;;;1.00;;
34775;SDS011;20989;52.566;13.346;2023-02-01T05:44:01;1.70;;;1.10;;
34775;SDS011;20989;52.566;13.346;2023-02-01T05:47:02;2.17;;;1.30;;
34775;SDS011;20989;52.566;13.346;2023-02-01T05:50:03;1.92;;;1.40;;
34775;SDS011;20989;52.566;13.346;2023-02-01T05:53:05;1.70;;;1.08;;
34775;SDS011;20989;52.566;13.346;2023-02-01T05:56:06;2.53;;;1.30;;
34775;SDS011;20989;52.566;13.346;2023-02-01T05:59:07;1.40;;;0.82;;
34775;SDS011;20989;52.566;13.346;2023-02-01T06:02:08;2.25;;;1.20;;
34775;SDS011;20989;52.566;13.346;2023-02-01T06:05:10;1.70;;;1.10;;
34775;SDS011;20989;52.566;13.346;2023-02-01T06:08:11;1.25;;;1.10;;
34775;SDS011;20989;52.566;13.346;2023-02-01T06:11:12;2.40;;;1.02;;
34775;SDS011;20989;52.566;13.346;2023-02-01T06:14:13;1.45;;;1.00;;
34775;SDS011;20989;52.566;13.346;2023-02-01T06:17:14;2.78;;;1.30;;
34775;SDS011;20989;52.566;13.346;2023-02-01T06:20:14;2.20;;;1.23;;
34775;SDS011;20989;52.566;13.346;2023-02-01T06:23:16;2.53;;;1.40;;
34775;SDS011;20989;52.566;13.346;2023-02-01T06:26:16;0.80;;;0.77;;
34775;SDS011;20989;52.566;13.346;2023-02-01T06:29:18;1.48;;;0.90;;
34775;SDS011;20989;52.566;13.346;2023-02-01T06:32:18;1.40;;;1.10;;
34775;SDS011;20989;52.566;13.346;2023-02-01T06:35:19;6.00;;;1.40;;
34775;SDS011;20989;52.566;13.346;2023-02-01T06:38:19;2.55;;;1.17;;
34775;SDS011;20989;52.566;13.346;2023-02-01T06:41:20;4.57;;;1.33;;
34775;SDS011;20989;52.566;13.346;2023-02-01T06:44:21;2.30;;;1.70;;
34775;SDS011;20989;52.566;13.346;2023-02-01T06:47:21;3.03;;;1.17;;
34775;SDS011;20989;52.566;13.346;2023-02-01T06:50:22;2.50;;;1.35;;
34775;SDS011;20989;52.566;13.346;2023-02-01T06:53:23;2.15;;;1.50;;
34775;SDS011;20989;52.566;13.346;2023-02-01T06:56:24;6.68;;;1.75;;
34775;SDS011;20989;52.566;13.346;2023-02-01T06:59:25;1.85;;;1.08;;
34775;SDS011;20989;52.566;13.346;2023-02-01T07:02:26;2.13;;;1.00;;
34775;SDS011;20989;52.566;13.346;2023-02-01T07:05:26;5.10;;;1.20;;
34775;SDS011;20989;52.566;13.346;2023-02-01T07:08:28;3.67;;;1.23;;
34775;SDS011;20989;52.566;13.346;2023-02-01T07:11:29;3.85;;;1.02;;
34775;SDS011;20989;52.566;13.346;2023-02-01T07:14:30;2.85;;;1.42;;
34775;SDS011;20989;52.566;13.346;2023-02-01T07:17:31;5.03;;;1.83;;
34775;SDS011;20989;52.566;13.346;2023-02-01T07:20:32;3.72;;;1.55;;
34775;SDS011;20989;52.566;13.346;2023-02-01T07:23:33;6.00;;;1.52;;
34775;SDS011;20989;52.566;13.346;2023-02-01T07:26:34;2.47;;;1.33;;
34775;SDS011;20989;52.566;13.346;2023-02-01T07:29:35;3.95;;;1.85;;
34775;SDS011;20989;52.566;13.346;2023-02-01T07:32:36;7.00;;;2.08;;
34775;SDS011;20989;52.566;13.346;2023-02-01T07:35:36;3.00;;;1.60;;
34775;SDS011;20989;52.566;13.346;2023-02-01T07:38:37;2.50;;;1.35;;
34775;SDS011;20989;52.566;13.346;2023-02-01T07:41:38;4.78;;;1.83;;
34775;SDS011;20989;52.566;13.346;2023-02-01T07:44:38;3.45;;;1.45;;
34775;SDS011;20989;52.566;13.346;2023-02-01T07:47:39;2.00;;;1.10;;
34775;SDS011;20989;52.566;13.346;2023-02-01T07:50:40;2.72;;;1.60;;
34775;SDS011;20989;52.566;13.346;2023-02-01T07:53:41;2.47;;;1.25;;
34775;SDS011;20989;52.566;13.346;2023-02-01T07:56:43;4.18;;;1.35;;
34775;SDS011;20989;52.566;13.346;2023-02-01T07:59:44;2.13;;;1.27;;
34775;SDS011;20989;52.566;13.346;2023-02-01T08:03:04;2.78;;;1.63;;
34775;SDS011;20989;52.566;13.346;2023-02-01T08:06:05;2.88;;;1.63;;
34775;SDS011;20989;52.566;13.346;2023-02-01T08:09:06;4.07;;;1.52;;
34775;SDS011;20989;52.566;13.346;2023-02-01T08:12:08;2.92;;;1.23;;
34775;SDS011;20989;52.566;13.346;2023-02-01T08:15:09;3.28;;;1.40;;
34775;SDS011;20989;52.566;13.346;2023-02-01T08:18:10;1.42;;;1.13;;
34775;SDS011;20989;52.566;13.346;2023-02-01T08:21:12;4.20;;;1.48;;
34775;SDS011;20989;52.566;13.346;2023-02-01T08:24:18;2.60;;;1.60;;
34775;SDS011;20989;52.566;13.346;2023-02-01T08:27:19;3.75;;;1.50;;
34775;SDS011;20989;52.566;13.346;2023-02-01T08:30:20;2.70;;;1.38;;
34775;SDS011;20989;52.566;13.346;2023-02-01T08:33:22;2.08;;;1.08;;
34775;SDS011;20989;52.566;13.346;2023-02-01T08:36:22;2.97;;;1.38;;
34775;SDS011;20989;52.566;13.346;2023-02-01T08:39:25;2.67;;;1.35;;
34775;SDS011;20989;52.566;13.346;2023-02-01T08:42:26;2.45;;;1.25;;
34775;SDS011;20989;52.566;13.346;2023-02-01T08:45:45;1.60;;;1.35;;
34775;SDS011;20989;52.566;13.346;2023-02-01T08:48:46;2.33;;;1.20;;
34775;SDS011;20989;52.566;13.346;2023-02-01T08:51:47;2.00;;;1.30;;
34775;SDS011;20989;52.566;13.346;2023-02-01T08:54:48;2.35;;;1.17;;
34775;SDS011;20989;52.566;13.346;2023-02-01T08:57:49;1.70;;;1.27;;
34775;SDS011;20989;52.566;13.346;2023-02-01T09:00:49;1.77;;;1.30;;
34775;SDS011;20989;52.566;13.346;2023-02-01T09:03:51;1.58;;;1.08;;
34775;SDS011;20989;52.566;13.346;2023-02-01T09:06:51;1.25;;;0.85;;
34775;SDS011;20989;52.566;13.346;2023-02-01T09:09:55;1.30;;;1.17;;
34775;SDS011;20989;52.566;13.346;2023-02-01T09:12:56;2.25;;;1.30;;
34775;SDS011;20989;52.566;13.346;2023-02-01T09:15:57;1.42;;;1.08;;
34775;SDS011;20989;52.566;13.346;2023-02-01T09:18:59;0.93;;;0.90;;
34775;SDS011;20989;52.566;13.346;2023-02-01T09:22:00;1.48;;;1.20;;
34775;SDS011;20989;52.566;13.346;2023-02-01T09:25:01;1.58;;;1.25;;
34775;SDS011;20989;52.566;13.346;2023-02-01T09:28:01;2.60;;;1.42;;
34775;SDS011;20989;52.566;13.346;2023-02-01T09:31:04;1.90;;;0.93;;
34775;SDS011;20989;52.566;13.346;2023-02-01T09:34:04;0.63;;;0.63;;
34775;SDS011;20989;52.566;13.346;2023-02-01T09:37:05;0.73;;;0.73;;
34775;SDS011;20989;52.566;13.346;2023-02-01T09:40:07;1.10;;;1.00;;
34775;SDS011;20989;52.566;13.346;2023-02-01T09:43:24;1.17;;;1.08;;
34775;SDS011;20989;52.566;13.346;2023-02-01T09:46:41;2.25;;;1.45;;
34775;SDS011;20989;52.566;13.346;2023-02-01T09:50:28;1.30;;;1.00;;
34775;SDS011;20989;52.566;13.346;2023-02-01T09:53:25;1.10;;;0.98;;
34775;SDS011;20989;52.566;13.346;2023-02-01T09:56:34;1.58;;;1.20;;
34775;SDS011;20989;52.566;13.346;2023-02-01T09:59:46;1.30;;;1.00;;
34775;SDS011;20989;52.566;13.346;2023-02-01T10:02:59;0.80;;;0.80;;
34775;SDS011;20989;52.566;13.346;2023-02-01T10:09:28;1.08;;;0.85;;
34775;SDS011;20989;52.566;13.346;2023-02-01T10:16:17;1.73;;;1.15;;
34775;SDS011;20989;52.566;13.346;2023-02-01T10:23:19;0.75;;;0.75;;
34775;SDS011;20989;52.566;13.346;2023-02-01T10:26:23;0.82;;;0.80;;
34775;SDS011;20989;52.566;13.346;2023-02-01T10:29:26;1.10;;;1.00;;
34775;SDS011;20989;52.566;13.346;2023-02-01T10:32:36;1.05;;;0.90;;
34775;SDS011;20989;52.566;13.346;2023-02-01T10:35:39;0.85;;;0.80;;
34775;SDS011;20989;52.566;13.346;2023-02-01T10:38:41;1.45;;;1.05;;
34775;SDS011;20989;52.566;13.346;2023-02-01T10:41:42;3.40;;;1.38;;
34775;SDS011;20989;52.566;13.346;2023-02-01T10:44:44;0.82;;;0.82;;
34775;SDS011;20989;52.566;13.346;2023-02-01T10:47:48;0.85;;;0.70;;
34775;SDS011;20989;52.566;13.346;2023-02-01T10:51:07;0.75;;;0.75;;
34775;SDS011;20989;52.566;13.346;2023-02-01T10:54:31;1.15;;;1.00;;
34775;SDS011;20989;52.566;13.346;2023-02-01T10:57:37;0.98;;;0.82;;
34775;SDS011;20989;52.566;13.346;2023-02-01T11:00:43;7.95;;;1.10;;
34775;SDS011;20989;52.566;13.346;2023-02-01T11:07:05;1.52;;;0.77;;
34775;SDS011;20989;52.566;13.346;2023-02-01T11:10:39;1.10;;;1.00;;
34775;SDS011;20989;52.566;13.346;2023-02-01T11:13:41;2.08;;;1.05;;
34775;SDS011;20989;52.566;13.346;2023-02-01T11:16:46;2.22;;;1.00;;
34775;SDS011;20989;52.566;13.346;2023-02-01T11:19:57;1.75;;;1.02;;
34775;SDS011;20989;52.566;13.346;2023-02-01T11:23:20;5.03;;;1.50;;
34775;SDS011;20989;52.566;13.346;2023-02-01T11:26:24;3.30;;;1.63;;
34775;SDS011;20989;52.566;13.346;2023-02-01T11:29:37;5.80;;;1.83;;
34775;SDS011;20989;52.566;13.346;2023-02-01T11:32:41;4.95;;;1.40;;
34775;SDS011;20989;52.566;13.346;2023-02-01T11:35:42;3.10;;;2.17;;
34775;SDS011;20989;52.566;13.346;2023-02-01T11:38:51;4.15;;;2.72;;
34775;SDS011;20989;52.566;13.346;2023-02-01T11:42:14;3.97;;;2.28;;
34775;SDS011;20989;52.566;13.346;2023-02-01T11:45:18;2.58;;;1.92;;
34775;SDS011;20989;52.566;13.346;2023-02-01T11:48:24;5.47;;;1.92;;
34775;SDS011;20989;52.566;13.346;2023-02-01T11:52:10;3.83;;;2.40;;
34775;SDS011;20989;52.566;13.346;2023-02-01T11:55:14;4.28;;;2.05;;
34775;SDS011;20989;52.566;13.346;2023-02-01T11:58:39;4.63;;;2.67;;
34775;SDS011;20989;52.566;13.346;2023-02-01T12:05:15;3.10;;;1.80;;
34775;SDS011;20989;52.566;13.346;2023-02-01T12:15:14;2.17;;;1.30;;
34775;SDS011;20989;52.566;13.346;2023-02-01T12:18:33;2.35;;;1.65;;
34775;SDS011;20989;52.566;13.346;2023-02-01T12:25:04;2.58;;;1.90;;
34775;SDS011;20989;52.566;13.346;2023-02-01T12:28:29;4.43;;;2.20;;
34775;SDS011;20989;52.566;13.346;2023-02-01T12:31:53;2.25;;;1.90;;
34775;SDS011;20989;52.566;13.346;2023-02-01T12:38:26;2.72;;;1.75;;
34775;SDS011;20989;52.566;13.346;2023-02-01T12:44:53;2.03;;;1.80;;
34775;SDS011;20989;52.566;13.346;2023-02-01T12:48:01;3.22;;;1.50;;
34775;SDS011;20989;52.566;13.346;2023-02-01T12:51:27;2.70;;;2.00;;
34775;SDS011;20989;52.566;13.346;2023-02-01T12:57:50;1.83;;;1.63;;
34775;SDS011;20989;52.566;13.346;2023-02-01T13:01:56;2.85;;;1.42;;
34775;SDS011;20989;52.566;13.346;2023-02-01T13:11:27;3.17;;;1.80;;
34775;SDS011;20989;52.566;13.346;2023-02-01T13:17:43;7.25;;;2.05;;
34775;SDS011;20989;52.566;13.346;2023-02-01T13:20:58;3.00;;;1.92;;
34775;SDS011;20989;52.566;13.346;2023-02-01T13:24:03;6.13;;;3.17;;
34775;SDS011;20989;52.566;13.346;2023-02-01T13:27:05;7.30;;;2.33;;
34775;SDS011;20989;52.566;13.346;2023-02-01T13:43:36;4.88;;;3.50;;
34775;SDS011;20989;52.566;13.346;2023-02-01T13:46:43;5.70;;;2.88;;
34775;SDS011;20989;52.566;13.346;2023-02-01T13:49:46;5.85;;;3.20;;
34775;SDS011;20989;52.566;13.346;2023-02-01T13:52:51;4.38;;;3.13;;
34775;SDS011;20989;52.566;13.346;2023-02-01T13:56:09;5.22;;;3.05;;
34775;SDS011;20989;52.566;13.346;2023-02-01T13:59:58;6.18;;;3.33;;
34775;SDS011;20989;52.566;13.346;2023-02-01T14:08:43;4.38;;;3.13;;
34775;SDS011;20989;52.566;13.346;2023-02-01T14:11:46;5.13;;;2.95;;
34775;SDS011;20989;52.566;13.346;2023-02-01T14:14:51;4.30;;;2.53;;
34775;SDS011;20989;52.566;13.346;2023-02-01T14:19:19;2.92;;;2.55;;
34775;SDS011;20989;52.566;13.346;2023-02-01T14:21:48;2.53;;;2.30;;
34775;SDS011;20989;52.566;13.346;2023-02-01T14:24:54;5.35;;;2.75;;
34775;SDS011;20989;52.566;13.346;2023-02-01T14:27:58;3.47;;;2.40;;
34775;SDS011;20989;52.566;13.346;2023-02-01T14:30:59;6.28;;;2.13;;
34775;SDS011;20989;52.566;13.346;2023-02-01T14:34:02;4.72;;;2.50;;
34775;SDS011;20989;52.566;13.346;2023-02-01T14:37:32;4.03;;;2.85;;
34775;SDS011;20989;52.566;13.346;2023-02-01T14:40:34;5.13;;;2.42;;
34775;SDS011;20989;52.566;13.346;2023-02-01T14:50:40;3.40;;;2.63;;
34775;SDS011;20989;52.566;13.346;2023-02-01T14:53:47;3.45;;;2.28;;
34775;SDS011;20989;52.566;13.346;2023-02-01T14:56:49;2.63;;;1.80;;
34775;SDS011;20989;52.566;13.346;2023-02-01T14:59:53;3.55;;;2.20;;
34775;SDS011;20989;52.566;13.346;2023-02-01T15:09:45;3.53;;;2.10;;
34775;SDS011;20989;52.566;13.346;2023-02-01T15:12:47;4.18;;;2.20;;
34775;SDS011;20989;52.566;13.346;2023-02-01T15:16:08;3.35;;;2.05;;
34775;SDS011;20989;52.566;13.346;2023-02-01T15:19:12;4.40;;;1.67;;
34775;SDS011;20989;52.566;13.346;2023-02-01T15:22:17;3.55;;;2.00;;
34775;SDS011;20989;52.566;13.346;2023-02-01T15:25:29;4.57;;;1.60;;
34775;SDS011;20989;52.566;13.346;2023-02-01T15:28:31;4.53;;;1.40;;
34775;SDS011;20989;52.566;13.346;2023-02-01T15:31:33;2.15;;;1.58;;
34775;SDS011;20989;52.566;13.346;2023-02-01T15:34:47;2.75;;;2.15;;
34775;SDS011;20989;52.566;13.346;2023-02-01T15:37:49;2.45;;;1.88;;
34775;SDS011;20989;52.566;13.346;2023-02-01T15:47:05;3.17;;;1.63;;
34775;SDS011;20989;52.566;13.346;2023-02-01T15:50:18;1.65;;;1.55;;
34775;SDS011;20989;52.566;13.346;2023-02-01T15:53:22;2.45;;;1.58;;
34775;SDS011;20989;52.566;13.346;2023-02-01T15:56:26;2.88;;;1.88;;
34775;SDS011;20989;52.566;13.346;2023-02-01T15:59:32;1.77;;;1.30;;
34775;SDS011;20989;52.566;13.346;2023-02-01T16:02:42;2.40;;;1.75;;
34775;SDS011;20989;52.566;13.346;2023-02-01T16:05:58;1.65;;;1.48;;
34775;SDS011;20989;52.566;13.346;2023-02-01T16:09:05;1.85;;;1.42;;
34775;SDS011;20989;52.566;13.346;2023-02-01T16:12:23;1.60;;;1.33;;
34775;SDS011;20989;52.566;13.346;2023-02-01T16:15:27;1.60;;;1.50;;
34775;SDS011;20989;52.566;13.346;2023-02-01T16:18:29;2.50;;;1.50;;
34775;SDS011;20989;52.566;13.346;2023-02-01T16:21:31;1.50;;;1.33;;
34775;SDS011;20989;52.566;13.346;2023-02-01T16:24:32;3.75;;;1.48;;
34775;SDS011;20989;52.566;13.346;2023-02-01T16:27:33;1.33;;;1.23;;
34775;SDS011;20989;52.566;13.346;2023-02-01T16:33:56;1.83;;;1.60;;
34775;SDS011;20989;52.566;13.346;2023-02-01T16:37:01;3.67;;;1.30;;
34775;SDS011;20989;52.566;13.346;2023-02-01T16:40:34;1.00;;;1.00;;
34775;SDS011;20989;52.566;13.346;2023-02-01T16:43:37;2.78;;;2.17;;
34775;SDS011;20989;52.566;13.346;2023-02-01T16:46:45;8.50;;;3.88;;
34775;SDS011;20989;52.566;13.346;2023-02-01T16:49:48;6.22;;;3.45;;
34775;SDS011;20989;52.566;13.346;2023-02-01T16:56:47;1.80;;;1.52;;
34775;SDS011;20989;52.566;13.346;2023-02-01T16:59:49;2.00;;;1.70;;
34775;SDS011;20989;52.566;13.346;2023-02-01T17:02:52;2.97;;;1.73;;
34775;SDS011;20989;52.566;13.346;2023-02-01T17:05:54;2.85;;;1.50;;
34775;SDS011;20989;52.566;13.346;2023-02-01T17:12:30;2.95;;;1.65;;
34775;SDS011;20989;52.566;13.346;2023-02-01T17:15:32;2.95;;;1.50;;
34775;SDS011;20989;52.566;13.346;2023-02-01T17:18:36;3.50;;;1.70;;
34775;SDS011;20989;52.566;13.346;2023-02-01T17:21:47;12.52;;;1.70;;
34775;SDS011;20989;52.566;13.346;2023-02-01T17:24:55;4.90;;;1.63;;
34775;SDS011;20989;52.566;13.346;2023-02-01T17:27:56;1.35;;;1.25;;
34775;SDS011;20989;52.566;13.346;2023-02-01T17:30:56;4.03;;;1.50;;
34775;SDS011;20989;52.566;13.346;2023-02-01T17:33:57;4.38;;;1.42;;
34775;SDS011;20989;52.566;13.346;2023-02-01T17:36:58;3.63;;;1.35;;
34775;SDS011;20989;52.566;13.346;2023-02-01T17:39:58;9.10;;;1.50;;
34775;SDS011;20989;52.566;13.346;2023-02-01T17:43:00;5.85;;;1.55;;
34775;SDS011;20989;52.566;13.346;2023-02-01T17:46:06;6.15;;;1.35;;
34775;SDS011;20989;52.566;13.346;2023-02-01T17:49:14;2.75;;;1.40;;
34775;SDS011;20989;52.566;13.346;2023-02-01T17:52:15;4.07;;;1.15;;
34775;SDS011;20989;52.566;13.346;2023-02-01T17:55:18;1.95;;;1.30;;
34775;SDS011;20989;52.566;13.346;2023-02-01T17:58:22;2.28;;;1.30;;
34775;SDS011;20989;52.566;13.346;2023-02-01T18:01:23;4.53;;;1.10;;
34775;SDS011;20989;52.566;13.346;2023-02-01T18:04:24;2.70;;;1.17;;
34775;SDS011;20989;52.566;13.346;2023-02-01T18:07:25;2.97;;;1.27;;
34775;SDS011;20989;52.566;13.346;2023-02-01T18:10:26;4.65;;;1.15;;
34775;SDS011;20989;52.566;13.346;2023-02-01T18:13:29;4.30;;;1.10;;
34775;SDS011;20989;52.566;13.346;2023-02-01T18:16:32;4.07;;;1.05;;
34775;SDS011;20989;52.566;13.346;2023-02-01T18:19:33;2.28;;;0.80;;
34775;SDS011;20989;52.566;13.346;2023-02-01T18:22:34;2.30;;;1.05;;
34775;SDS011;20989;52.566;13.346;2023-02-01T18:25:34;3.88;;;1.10;;
34775;SDS011;20989;52.566;13.346;2023-02-01T18:28:37;1.52;;;0.80;;
34775;SDS011;20989;52.566;13.346;2023-02-01T18:31:40;2.58;;;1.20;;
34775;SDS011;20989;52.566;13.346;2023-02-01T18:34:45;1.90;;;1.10;;
34775;SDS011;20989;52.566;13.346;2023-02-01T18:37:46;2.05;;;1.13;;
34775;SDS011;20989;52.566;13.346;2023-02-01T18:40:48;1.38;;;0.90;;
34775;SDS011;20989;52.566;13.346;2023-02-01T18:43:53;3.92;;;1.15;;
34775;SDS011;20989;52.566;13.346;2023-02-01T18:46:54;2.45;;;1.00;;
34775;SDS011;20989;52.566;13.346;2023-02-01T18:49:55;5.72;;;1.20;;
34775;SDS011;20989;52.566;13.346;2023-02-01T18:52:56;1.95;;;1.17;;
34775;SDS011;20989;52.566;13.346;2023-02-01T18:55:58;1.30;;;1.20;;
34775;SDS011;20989;52.566;13.346;2023-02-01T18:58:59;2.63;;;1.45;;
34775;SDS011;20989;52.566;13.346;2023-02-01T19:01:59;1.88;;;1.00;;
34775;SDS011;20989;52.566;13.346;2023-02-01T19:05:02;1.90;;;1.45;;
34775;SDS011;20989;52.566;13.346;2023-02-01T19:08:04;1.42;;;0.90;;
34775;SDS011;20989;52.566;13.346;2023-02-01T19:11:05;1.98;;;1.13;;
34775;SDS011;20989;52.566;13.346;2023-02-01T19:14:08;3.63;;;1.17;;
34775;SDS011;20989;52.566;13.346;2023-02-01T19:17:09;4.60;;;1.10;;
34775;SDS011;20989;52.566;13.346;2023-02-01T19:20:11;1.00;;;0.88;;
34775;SDS011;20989;52.566;13.346;2023-02-01T19:23:15;2.95;;;1.15;;
34775;SDS011;20989;52.566;13.346;2023-02-01T19:26:17;2.03;;;1.23;;
34775;SDS011;20989;52.566;13.346;2023-02-01T19:29:18;3.80;;;1.00;;
34775;SDS011;20989;52.566;13.346;2023-02-01T20:06:51;13.60;;;1.15;;
34775;SDS011;20989;52.566;13.346;2023-02-01T20:09:53;8.25;;;1.20;;
34775;SDS011;20989;52.566;13.346;2023-02-01T20:12:53;3.92;;;1.38;;
34775;SDS011;20989;52.566;13.346;2023-02-01T20:15:56;16.20;;;1.98;;
34775;SDS011;20989;52.566;13.346;2023-02-01T20:18:57;8.70;;;1.27;;
34775;SDS011;20989;52.566;13.346;2023-02-01T20:21:58;11.80;;;1.38;;
34775;SDS011;20989;52.566;13.346;2023-02-01T20:24:59;8.98;;;1.13;;
34775;SDS011;20989;52.566;13.346;2023-02-01T20:28:02;4.13;;;1.20;;
34775;SDS011;20989;52.566;13.346;2023-02-01T20:31:03;2.72;;;1.17;;
34775;SDS011;20989;52.566;13.346;2023-02-01T20:34:05;5.45;;;1.20;;
34775;SDS011;20989;52.566;13.346;2023-02-01T20:37:07;2.70;;;0.90;;
34775;SDS011;20989;52.566;13.346;2023-02-01T20:40:08;2.22;;;0.93;;
34775;SDS011;20989;52.566;13.346;2023-02-01T20:43:10;3.90;;;1.35;;
34775;SDS011;20989;52.566;13.346;2023-02-01T20:46:11;1.90;;;1.20;;
34775;SDS011;20989;52.566;13.346;2023-02-01T20:49:11;3.40;;;1.13;;
34775;SDS011;20989;52.566;13.346;2023-02-01T20:52:12;2.58;;;1.52;;
34775;SDS011;20989;52.566;13.346;2023-02-01T20:55:13;2.42;;;0.90;;
34775;SDS011;20989;52.566;13.346;2023-02-01T20:58:14;1.60;;;0.90;;